Time;durP1;ratioP1;P1;durP2;ratioP2;P2;SDS_P1;SDS_P2;PMS_P1;PMS_P2;Temp;Humidity;BMP_temperature;BMP_pressure;BME280_temperature;BME280_humidity;BME280_pressure;Samples;Min_cycle;Max_cycle;Signal;HPM_P1;HPM_P2
2023/02/17 00:00:38;;;;;;;12.95;6.25;;;;;;;11.00;100.00;102091.22;5224474;28;20489;-75
2023/02/17 00:03:08;;;;;;;8.60;5.88;;;;;;;10.95;100.00;102088.13;5224677;28;20025;-75
2023/02/17 00:05:39;;;;;;;10.18;5.85;;;;;;;10.94;100.00;102089.06;5224537;28;20139;-75
2023/02/17 00:08:09;;;;;;;9.38;6.60;;;;;;;10.95;100.00;102104.22;5206287;28;20036;-75
2023/02/17 00:10:40;;;;;;;11.45;6.28;;;;;;;10.93;100.00;102103.50;5223472;28;20646;-75
2023/02/17 00:13:10;;;;;;;10.60;6.25;;;;;;;10.90;100.00;102111.84;5224577;28;20032;-75
2023/02/17 00:15:41;;;;;;;9.80;6.60;;;;;;;10.93;100.00;102114.22;5224028;28;20150;-75
2023/02/17 00:18:11;;;;;;;10.32;5.95;;;;;;;10.94;100.00;102113.25;5224045;28;20021;-75
2023/02/17 00:20:42;;;;;;;12.23;6.47;;;;;;;10.97;100.00;102107.59;5224012;28;20031;-75
2023/02/17 00:23:12;;;;;;;12.27;6.18;;;;;;;10.97;100.00;102109.44;5223773;28;20029;-75
2023/02/17 00:25:43;;;;;;;11.25;6.38;;;;;;;10.97;100.00;102102.22;5223863;28;20096;-75
2023/02/17 00:28:14;;;;;;;8.50;5.90;;;;;;;10.94;100.00;102104.34;5223833;28;20032;-75
2023/02/17 00:30:44;;;;;;;11.30;7.80;;;;;;;10.90;100.00;102109.16;5205736;28;20025;-75
2023/02/17 00:33:15;;;;;;;11.13;6.32;;;;;;;10.85;100.00;102095.31;5224096;28;20025;-75
2023/02/17 00:35:45;;;;;;;11.45;6.90;;;;;;;10.85;100.00;102098.81;5223188;28;20070;-75
2023/02/17 00:38:16;;;;;;;10.38;6.20;;;;;;;10.84;100.00;102094.44;5205983;28;20028;-74
2023/02/17 00:40:46;;;;;;;9.30;6.47;;;;;;;10.83;100.00;102086.50;5206215;28;20473;-75
2023/02/17 00:43:16;;;;;;;10.30;6.60;;;;;;;10.81;100.00;102083.13;5206220;28;20568;-75
2023/02/17 00:45:47;;;;;;;11.40;7.10;;;;;;;10.79;100.00;102074.34;5223818;28;20601;-75
2023/02/17 00:48:17;;;;;;;11.95;6.60;;;;;;;10.77;100.00;102058.41;5223114;28;20412;-75
2023/02/17 00:50:48;;;;;;;10.27;6.65;;;;;;;10.77;100.00;102054.88;5223755;28;20107;-75
2023/02/17 00:53:18;;;;;;;8.60;6.05;;;;;;;10.76;100.00;102042.44;5223621;28;20033;-75
2023/02/17 00:55:49;;;;;;;8.45;5.60;;;;;;;10.80;100.00;102033.97;5223605;28;20481;-75
2023/02/17 00:58:19;;;;;;;8.73;6.25;;;;;;;10.77;100.00;102044.97;5222879;28;20073;-76
2023/02/17 01:00:50;;;;;;;8.25;5.72;;;;;;;10.76;100.00;102040.59;5223157;28;20103;-75
2023/02/17 01:03:21;;;;;;;6.68;4.95;;;;;;;10.76;100.00;102040.59;5223483;28;20029;-75
2023/02/17 01:05:53;;;;;;;9.98;5.82;;;;;;;10.72;100.00;102033.81;5223465;28;20520;-75
2023/02/17 01:08:24;;;;;;;8.25;5.32;;;;;;;10.76;100.00;102045.13;5205609;28;20021;-75
2023/02/17 01:10:54;;;;;;;9.15;6.15;;;;;;;10.81;100.00;102048.25;5222816;28;20079;-75
2023/02/17 01:13:25;;;;;;;9.35;5.55;;;;;;;10.85;100.00;102049.66;5223455;28;20044;-76
2023/02/17 01:15:55;;;;;;;8.13;5.38;;;;;;;10.87;100.00;102056.56;5205601;28;20029;-75
2023/02/17 01:18:26;;;;;;;9.50;5.68;;;;;;;10.80;100.00;102058.13;5223092;28;20653;-75
2023/02/17 01:20:56;;;;;;;9.02;5.13;;;;;;;10.73;100.00;102056.97;5223279;28;20033;-75
2023/02/17 01:23:27;;;;;;;7.97;5.28;;;;;;;10.73;100.00;102043.53;5223008;28;20082;-74
2023/02/17 01:25:57;;;;;;;8.65;5.75;;;;;;;10.72;100.00;102038.31;5223218;28;20108;-74
2023/02/17 01:28:28;;;;;;;10.15;5.97;;;;;;;10.70;100.00;102045.69;5222929;28;20021;-75
2023/02/17 01:31:04;;;;;;;13.48;5.72;;;;;;;10.73;100.00;102056.97;5223375;28;20028;-75
2023/02/17 01:33:36;;;;;;;9.05;5.93;;;;;;;10.72;100.00;102041.84;5223305;28;20092;-75
2023/02/17 01:36:10;;;;;;;9.90;5.65;;;;;;;10.71;100.00;102042.00;5222623;28;20075;-75
2023/02/17 01:38:41;;;;;;;11.68;5.35;;;;;;;10.75;100.00;102048.78;5222873;28;20040;-75
2023/02/17 01:41:13;;;;;;;7.47;4.90;;;;;;;10.71;100.00;102053.59;5223253;28;20524;-74
2023/02/17 01:44:04;;;;;;;8.27;5.30;;;;;;;10.69;100.00;102054.69;5225116;28;20033;-75
2023/02/17 01:46:35;;;;;;;11.55;5.65;;;;;;;10.70;100.00;102059.09;5226214;28;20086;-75
2023/02/17 01:49:16;;;;;;;8.93;4.63;;;;;;;10.68;100.00;102047.63;5227318;28;20478;-75
2023/02/17 01:51:51;;;;;;;9.98;5.00;;;;;;;10.61;100.00;102036.59;5226659;28;20102;-75
2023/02/17 01:54:28;;;;;;;8.90;4.40;;;;;;;10.63;100.00;102053.41;5227024;28;20477;-75
2023/02/17 01:57:00;;;;;;;7.88;4.57;;;;;;;10.61;100.00;102042.81;5212907;28;20025;-75
2023/02/17 01:59:31;;;;;;;10.95;4.25;;;;;;;10.59;100.00;102050.16;5226296;28;20385;-75
2023/02/17 02:02:04;;;;;;;8.23;4.38;;;;;;;10.55;100.00;102039.84;5226995;28;20025;-74
2023/02/17 02:04:38;;;;;;;6.75;4.53;;;;;;;10.57;100.00;102059.31;5226782;28;20056;-76
2023/02/17 02:07:13;;;;;;;8.07;4.15;;;;;;;10.54;100.00;102052.41;5226219;28;20025;-75
2023/02/17 02:09:49;;;;;;;9.77;4.68;;;;;;;10.53;100.00;102055.22;5226455;28;20028;-75
2023/02/17 02:12:24;;;;;;;13.38;4.80;;;;;;;10.53;100.00;102053.38;5226331;28;20020;-75
2023/02/17 02:14:58;;;;;;;;;;;;;;;10.48;100.00;102047.56;5209629;28;20029;-75
2023/02/17 02:17:35;;;;;;;9.85;4.15;;;;;;;10.46;100.00;102064.81;5225987;28;19961;-75
2023/02/17 02:20:18;;;;;;;9.48;3.78;;;;;;;10.39;100.00;102061.78;5226421;28;20122;-75
2023/02/17 02:23:23;;;;;;;6.20;3.40;;;;;;;10.40;100.00;102051.94;5213050;28;20062;-75
2023/02/17 02:26:17;;;;;;;6.10;3.22;;;;;;;10.34;100.00;102072.97;5226036;28;20021;-75
2023/02/17 02:29:05;;;;;;;6.38;3.17;;;;;;;10.32;100.00;102074.91;5226047;28;20027;-75
2023/02/17 02:32:03;;;;;;;4.32;2.45;;;;;;;10.33;100.00;102067.72;5226184;28;20059;-75
2023/02/17 02:34:42;;;;;;;5.60;2.60;;;;;;;10.29;100.00;102060.91;5215764;28;20036;-75
2023/02/17 02:37:17;;;;;;;11.02;2.33;;;;;;;10.24;100.00;102050.63;5225517;28;20033;-75
2023/02/17 02:39:51;;;;;;;5.22;2.92;;;;;;;10.27;100.00;102044.97;5225911;28;20029;-75
2023/02/17 02:42:24;;;;;;;6.45;2.67;;;;;;;10.19;100.00;102030.50;5226409;28;20017;-75
2023/02/17 02:44:55;;;;;;;3.53;2.63;;;;;;;10.18;100.00;102034.16;5225561;28;20017;-75
2023/02/17 02:47:57;;;;;;;3.35;2.58;;;;;;;10.14;100.00;102022.88;5225689;28;20029;-75
2023/02/17 02:51:03;;;;;;;6.22;3.25;;;;;;;10.10;100.00;102022.28;5213411;28;20032;-75
2023/02/17 02:53:47;;;;;;;6.27;3.20;;;;;;;10.12;100.00;102014.09;5225632;28;20436;-75
2023/02/17 02:56:44;;;;;;;7.87;3.33;;;;;;;10.11;100.00;102012.41;5225784;28;20346;-75
2023/02/17 02:59:49;;;;;;;6.00;3.15;;;;;;;10.11;100.00;102018.63;5225412;28;20344;-75
2023/02/17 03:02:52;;;;;;;9.05;3.30;;;;;;;10.09;100.00;102017.91;5225546;28;20021;-75
2023/02/17 03:05:39;;;;;;;3.67;2.78;;;;;;;10.07;100.00;102025.22;5216031;28;20486;-75
2023/02/17 03:08:19;;;;;;;6.40;3.42;;;;;;;10.03;100.00;102015.75;5194553;28;20070;-75
2023/02/17 03:10:52;;;;;;;6.25;3.75;;;;;;;10.02;100.00;102016.72;5225190;28;20032;-75
2023/02/17 03:13:23;;;;;;;9.23;4.07;;;;;;;10.09;100.00;102004.50;5225323;28;20078;-75
2023/02/17 03:15:59;;;;;;;7.85;3.80;;;;;;;10.11;100.00;102009.72;5224819;28;20061;-75
2023/02/17 03:18:31;;;;;;;12.45;4.40;;;;;;;10.06;100.00;102015.50;5225037;28;20114;-75
2023/02/17 03:21:09;;;;;;;10.35;4.72;;;;;;;10.05;100.00;102013.81;5225218;28;20059;-75
2023/02/17 03:23:40;;;;;;;7.53;4.80;;;;;;;10.01;100.00;102014.19;5225300;28;20391;-75
2023/02/17 03:26:10;;;;;;;11.45;6.32;;;;;;;10.02;100.00;102013.22;5225116;28;20025;-75
2023/02/17 03:28:41;;;;;;;13.10;6.38;;;;;;;10.04;100.00;102009.44;5224397;28;20029;-75
2023/02/17 03:31:11;;;;;;;15.32;7.13;;;;;;;10.08;100.00;102007.31;5225058;28;20021;-76
2023/02/17 03:33:42;;;;;;;13.45;7.25;;;;;;;10.09;100.00;102003.63;5224546;28;20112;-75
2023/02/17 03:36:12;;;;;;;17.75;8.43;;;;;;;10.10;100.00;102005.34;5215863;28;20029;-75
2023/02/17 03:38:43;;;;;;;21.50;8.80;;;;;;;10.08;100.00;102009.97;5224487;28;20029;-75
2023/02/17 03:41:13;;;;;;;18.52;8.32;;;;;;;10.07;100.00;102008.28;5224427;28;20043;-75
2023/02/17 03:43:44;;;;;;;28.75;9.13;;;;;;;10.09;100.00;102003.63;5225076;28;20477;-75
2023/02/17 03:46:16;;;;;;;20.02;9.93;;;;;;;10.08;100.00;101996.56;5224576;28;20013;-75
2023/02/17 03:48:46;;;;;;;20.75;10.18;;;;;;;10.11;100.00;101991.81;5224441;28;20477;-75
2023/02/17 03:51:20;;;;;;;24.90;9.57;;;;;;;10.12;100.00;101993.50;5224316;28;20024;-75
2023/02/17 03:53:51;;;;;;;19.10;10.13;;;;;;;10.12;100.00;101981.91;5224473;28;20557;-75
2023/02/17 03:56:21;;;;;;;20.45;9.43;;;;;;;10.13;100.00;101981.78;5224303;28;20501;-75
2023/02/17 03:58:52;;;;;;;22.23;9.55;;;;;;;10.15;100.00;101972.78;5224288;28;20091;-75
2023/02/17 04:01:23;;;;;;;20.20;9.45;;;;;;;10.10;100.00;101983.91;5224105;28;20028;-75
2023/02/17 04:03:53;;;;;;;19.98;8.70;;;;;;;10.11;100.00;101983.75;5212080;28;20048;-74
2023/02/17 04:06:24;;;;;;;21.02;9.80;;;;;;;10.08;100.00;101981.34;5221758;28;20032;-75
2023/02/17 04:08:54;;;;;;;19.83;10.02;;;;;;;10.08;100.00;101986.69;5224916;28;20430;-74
2023/02/17 04:11:25;;;;;;;21.15;8.98;;;;;;;10.07;100.00;101993.06;5223898;28;20029;-75
2023/02/17 04:13:55;;;;;;;18.88;7.78;;;;;;;10.07;100.00;101995.72;5223995;28;20108;-75
2023/02/17 04:16:26;;;;;;;18.10;7.45;;;;;;;10.09;100.00;101993.78;5223524;28;20029;-75
2023/02/17 04:18:56;;;;;;;15.55;8.07;;;;;;;10.15;100.00;101995.06;5224111;28;20405;-75
2023/02/17 04:21:27;;;;;;;17.88;8.02;;;;;;;10.12;100.00;102006.06;5224118;28;20035;-74
2023/02/17 04:23:59;;;;;;;15.63;8.30;;;;;;;10.10;100.00;102000.84;5223937;28;20029;-75
2023/02/17 04:26:30;;;;;;;14.40;7.57;;;;;;;10.15;100.00;102010.31;5223773;28;20021;-75
2023/02/17 04:29:03;;;;;;;17.40;7.85;;;;;;;10.16;100.00;101996.75;5223616;28;20031;-74
2023/02/17 04:31:34;;;;;;;15.30;8.32;;;;;;;10.11;100.00;102002.53;5207541;28;20050;-75
2023/02/17 04:34:04;;;;;;;22.55;9.05;;;;;;;10.10;100.00;101994.63;5208121;28;20112;-75
2023/02/17 04:36:35;;;;;;;20.08;8.93;;;;;;;10.06;100.00;101995.88;5223577;28;20082;-75
2023/02/17 04:39:05;;;;;;;20.23;8.85;;;;;;;10.06;100.00;101999.41;5224040;28;20103;-75
2023/02/17 04:41:35;;;;;;;19.40;8.32;;;;;;;10.05;100.00;101997.72;5223228;28;20477;-75
2023/02/17 04:44:06;;;;;;;19.10;7.93;;;;;;;10.06;100.00;102006.59;5206117;28;20025;-75
2023/02/17 04:46:36;;;;;;;19.50;8.52;;;;;;;10.04;100.00;102014.78;5205562;28;20386;-75
2023/02/17 04:49:07;;;;;;;17.10;8.75;;;;;;;10.03;100.00;102009.53;5223978;28;20037;-75
2023/02/17 04:51:37;;;;;;;17.05;8.75;;;;;;;10.04;100.00;102012.09;5223723;28;20041;-75
2023/02/17 04:54:08;;;;;;;17.55;8.05;;;;;;;10.09;100.00;102011.69;5223381;28;20059;-74
2023/02/17 04:56:38;;;;;;;21.25;8.52;;;;;;;10.09;100.00;102012.56;5223272;28;20021;-75
2023/02/17 04:59:08;;;;;;;18.27;7.95;;;;;;;10.15;100.00;102007.63;5223555;28;20031;-75
2023/02/17 05:01:39;;;;;;;18.15;8.27;;;;;;;10.10;100.00;102011.56;5223678;28;20104;-75
2023/02/17 05:04:09;;;;;;;18.40;7.97;;;;;;;10.07;100.00;102022.53;5223480;28;20111;-75
2023/02/17 05:06:40;;;;;;;16.73;7.65;;;;;;;10.06;100.00;102020.84;5205556;28;20029;-75
2023/02/17 05:09:10;;;;;;;19.33;8.13;;;;;;;10.08;100.00;102021.56;5223563;28;20029;-75
2023/02/17 05:11:41;;;;;;;19.10;7.60;;;;;;;10.06;100.00;102012.81;5223462;28;20033;-75
2023/02/17 05:14:11;;;;;;;14.63;7.38;;;;;;;10.02;100.00;102014.06;5223418;28;20468;-75
2023/02/17 05:16:42;;;;;;;19.30;8.10;;;;;;;10.00;100.00;102013.34;5223404;28;20040;-75
2023/02/17 05:19:12;;;;;;;16.75;7.60;;;;;;;10.00;100.00;102012.50;5227560;28;20036;-75
2023/02/17 05:21:43;;;;;;;18.55;7.60;;;;;;;10.01;100.00;102014.19;5227979;28;20090;-75
2023/02/17 05:24:13;;;;;;;20.10;7.90;;;;;;;10.00;100.00;102012.50;5210162;28;20087;-75
2023/02/17 05:26:43;;;;;;;18.05;7.65;;;;;;;9.97;100.00;102010.94;5227628;28;20029;-75
2023/02/17 05:29:14;;;;;;;15.15;7.32;;;;;;;9.99;100.00;102003.63;5227400;28;20067;-75
2023/02/17 05:31:45;;;;;;;19.63;7.80;;;;;;;10.00;100.00;102007.16;5227413;28;20448;-75
2023/02/17 05:34:15;;;;;;;16.77;7.40;;;;;;;9.94;100.00;101996.94;5227490;28;20025;-75
2023/02/17 05:36:45;;;;;;;15.00;7.20;;;;;;;9.97;100.00;102002.03;5227158;28;20104;-75
2023/02/17 05:39:16;;;;;;;12.52;6.30;;;;;;;10.03;100.00;101994.28;5227565;28;20066;-75
2023/02/17 05:41:46;;;;;;;16.33;7.50;;;;;;;9.98;100.00;101993.00;5227107;28;20044;-75
2023/02/17 05:44:17;;;;;;;21.75;8.10;;;;;;;9.94;100.00;102002.28;5227411;28;20095;-75
2023/02/17 05:46:47;;;;;;;18.83;6.97;;;;;;;9.97;100.00;102010.94;5209230;28;20029;-75
2023/02/17 05:49:18;;;;;;;15.00;7.07;;;;;;;10.02;100.00;102018.56;5227328;28;20422;-75
2023/02/17 05:51:48;;;;;;;16.05;6.88;;;;;;;10.00;100.00;102012.50;5227182;28;20099;-75
2023/02/17 05:54:19;;;;;;;15.52;7.38;;;;;;;10.00;100.00;102009.81;5226805;28;20052;-75
2023/02/17 05:56:49;;;;;;;14.98;6.97;;;;;;;10.00;100.00;102008.00;5226833;28;20056;-75
2023/02/17 05:59:20;;;;;;;17.50;6.97;;;;;;;10.05;100.00;102002.22;5226924;28;20044;-74
2023/02/17 06:01:50;;;;;;;15.35;7.15;;;;;;;10.03;100.00;102009.53;5209117;28;20449;-75
2023/02/17 06:04:21;;;;;;;17.17;7.25;;;;;;;9.95;100.00;101996.81;5213379;28;20029;-76
2023/02/17 06:06:51;;;;;;;14.68;6.80;;;;;;;9.97;100.00;102004.72;5226402;28;20079;-75
2023/02/17 06:09:22;;;;;;;21.65;7.03;;;;;;;9.98;100.00;102006.41;5227005;28;20381;-74
2023/02/17 06:11:52;;;;;;;18.67;6.88;;;;;;;9.98;100.00;101999.22;5226740;28;20036;-75
2023/02/17 06:14:23;;;;;;;18.80;7.45;;;;;;;9.99;100.00;102014.34;5226693;28;20021;-75
2023/02/17 06:16:55;;;;;;;14.63;5.95;;;;;;;9.98;100.00;102015.31;5208977;28;20512;-75
2023/02/17 06:19:26;;;;;;;22.25;9.07;;;;;;;9.96;100.00;102006.56;5226172;28;20021;-75
2023/02/17 06:21:56;;;;;;;20.65;7.63;;;;;;;9.98;100.00;102007.25;5226759;28;20056;-75
2023/02/17 06:24:27;;;;;;;17.67;7.25;;;;;;;10.01;100.00;102004.31;5226584;28;20385;-75
2023/02/17 06:26:57;;;;;;;18.67;6.55;;;;;;;9.98;100.00;101996.53;5226155;28;20166;-75
2023/02/17 06:29:28;;;;;;;20.90;7.55;;;;;;;9.98;100.00;101999.22;5225985;28;20029;-75
2023/02/17 06:31:58;;;;;;;18.00;6.85;;;;;;;9.98;100.00;102006.41;5226077;28;20032;-74
2023/02/17 06:34:29;;;;;;;16.77;6.95;;;;;;;9.99;100.00;102002.75;5226505;28;20166;-75
2023/02/17 06:36:59;;;;;;;14.45;6.55;;;;;;;10.02;100.00;102003.34;5225927;28;20463;-74
2023/02/17 06:39:30;;;;;;;18.13;6.45;;;;;;;10.01;100.00;102009.69;5226447;28;20025;-75
2023/02/17 06:42:00;;;;;;;17.23;7.25;;;;;;;10.02;100.00;102011.38;5226553;28;20029;-75
2023/02/17 06:44:31;;;;;;;13.98;6.13;;;;;;;10.04;100.00;102005.88;5226038;28;20098;-75
2023/02/17 06:47:03;;;;;;;14.50;6.97;;;;;;;10.05;100.00;102019.16;5225831;28;20025;-75
2023/02/17 06:49:33;;;;;;;14.55;6.63;;;;;;;10.08;100.00;102004.63;5225996;28;20499;-75
2023/02/17 06:52:04;;;;;;;15.88;5.65;;;;;;;10.03;100.00;102002.34;5226207;28;20032;-75
2023/02/17 06:54:34;;;;;;;13.30;6.18;;;;;;;10.11;100.00;102007.03;5225780;28;20032;-75
2023/02/17 06:57:05;;;;;;;14.35;6.03;;;;;;;10.12;100.00;102011.41;5225663;28;20051;-75
2023/02/17 06:59:35;;;;;;;16.92;6.32;;;;;;;10.16;100.00;102001.28;5225560;28;20500;-75
2023/02/17 07:02:06;;;;;;;15.05;6.70;;;;;;;10.17;100.00;102005.66;5226045;28;20166;-75
2023/02/17 07:04:37;;;;;;;14.60;5.85;;;;;;;10.19;100.00;102004.53;5225709;28;20021;-75
2023/02/17 07:07:09;;;;;;;13.43;6.35;;;;;;;10.17;100.00;102001.13;5208030;28;20588;-75
2023/02/17 07:09:40;;;;;;;14.80;6.50;;;;;;;10.17;100.00;101998.44;5208006;28;20041;-75
2023/02/17 07:12:10;;;;;;;15.00;6.75;;;;;;;10.19;100.00;102009.91;5225603;28;20504;-76
2023/02/17 07:14:41;;;;;;;18.10;7.32;;;;;;;10.15;100.00;101991.53;5225977;28;20024;-75
2023/02/17 07:17:11;;;;;;;13.30;6.35;;;;;;;10.16;100.00;101996.75;5225133;28;20033;-75
2023/02/17 07:19:42;;;;;;;17.60;7.20;;;;;;;10.17;100.00;102011.00;5224200;28;20029;-75
2023/02/17 07:22:12;;;;;;;14.75;6.78;;;;;;;10.18;100.00;102008.19;5225200;28;20021;-75
2023/02/17 07:24:43;;;;;;;15.57;6.95;;;;;;;10.17;100.00;102011.88;5225505;28;20108;-75
2023/02/17 07:27:13;;;;;;;16.80;6.93;;;;;;;10.20;100.00;102010.75;5222176;28;20028;-75
2023/02/17 07:29:44;;;;;;;13.82;6.97;;;;;;;10.18;100.00;102018.06;5202233;28;20425;-76
2023/02/17 07:32:14;;;;;;;15.60;6.47;;;;;;;10.22;100.00;102014.97;5221798;28;20036;-75
2023/02/17 07:34:45;;;;;;;17.00;7.07;;;;;;;10.23;100.00;102013.16;5224478;28;20021;-76
2023/02/17 07:37:16;;;;;;;16.73;6.82;;;;;;;10.25;100.00;102013.91;5223983;28;20037;-75
2023/02/17 07:39:47;;;;;;;17.27;7.20;;;;;;;10.29;100.00;102015.31;5205773;28;20055;-75
2023/02/17 07:42:18;;;;;;;14.85;6.72;;;;;;;10.28;100.00;102018.97;5223221;28;20052;-75
2023/02/17 07:44:48;;;;;;;16.60;7.45;;;;;;;10.30;100.00;102012.53;5223337;28;20059;-75
2023/02/17 07:47:19;;;;;;;15.35;7.18;;;;;;;10.31;100.00;102002.63;5223344;28;20046;-75
2023/02/17 07:49:49;;;;;;;16.92;7.18;;;;;;;10.34;100.00;102007.72;5223558;28;20032;-75
2023/02/17 07:52:20;;;;;;;18.67;8.65;;;;;;;10.42;100.00;102010.56;5223824;28;20113;-75
2023/02/17 07:54:51;;;;;;;16.10;8.13;;;;;;;10.41;100.00;102008.03;5223341;28;20487;-75
2023/02/17 07:57:21;;;;;;;16.27;7.35;;;;;;;10.39;100.00;102016.19;5222931;28;20037;-75
2023/02/17 07:59:52;;;;;;;16.27;7.00;;;;;;;10.45;100.00;102006.78;5222941;28;20074;-75
2023/02/17 08:02:22;;;;;;;17.70;6.72;;;;;;;10.42;100.00;102010.56;5223866;28;20025;-75
2023/02/17 08:04:53;;;;;;;15.15;7.20;;;;;;;10.46;100.00;102014.69;5223329;28;20104;-75
2023/02/17 08:07:23;;;;;;;14.55;6.97;;;;;;;10.42;100.00;102010.56;5222806;28;20025;-75
2023/02/17 08:15:33;;;;;;;16.38;7.70;;;;;;;10.53;100.00;102010.44;5223011;28;20021;-75
2023/02/17 08:18:05;;;;;;;18.38;8.15;;;;;;;10.51;100.00;102015.13;5222937;28;20032;-75
2023/02/17 08:20:35;;;;;;;16.02;7.70;;;;;;;10.55;100.00;102011.19;5224172;28;20024;-75
2023/02/17 08:23:06;;;;;;;20.67;7.78;;;;;;;10.59;100.00;102020.66;5199480;28;20029;-75
2023/02/17 08:25:36;;;;;;;16.38;7.43;;;;;;;10.59;100.00;102019.78;5211744;28;20064;-75
2023/02/17 08:28:07;;;;;;;14.43;7.07;;;;;;;10.60;100.00;102032.22;5222922;28;20029;-75
2023/02/17 08:30:38;;;;;;;12.95;6.65;;;;;;;10.67;100.00;102017.25;5222187;28;20480;-75
2023/02/17 08:33:09;;;;;;;12.57;7.18;;;;;;;10.69;100.00;102017.97;5222977;28;20051;-75
2023/02/17 08:35:39;;;;;;;13.88;6.78;;;;;;;10.69;100.00;102020.66;5222541;28;20034;-76
2023/02/17 08:38:10;;;;;;;16.38;7.80;;;;;;;10.73;100.00;102015.84;5222734;28;20031;-75
2023/02/17 08:40:41;;;;;;;12.52;7.07;;;;;;;10.77;100.00;102025.34;5222511;28;20029;-76
2023/02/17 08:43:11;;;;;;;16.75;7.57;;;;;;;10.81;100.00;102024.91;5221901;28;20037;-75
2023/02/17 08:45:42;;;;;;;16.02;6.85;;;;;;;10.87;100.00;102028.88;5222601;28;20090;-75
2023/02/17 08:48:12;;;;;;;16.88;7.43;;;;;;;10.96;100.00;102020.00;5222369;28;20025;-75
2023/02/17 08:50:46;;;;;;;13.35;6.50;;;;;;;11.06;100.00;102015.47;5222739;28;20108;-75
2023/02/17 08:53:16;;;;;;;12.25;6.50;;;;;;;11.03;100.00;102028.31;5221773;28;20021;-76
2023/02/17 08:55:47;;;;;;;10.43;6.38;;;;;;;11.11;100.00;102028.47;5222017;28;20705;-75
2023/02/17 08:58:17;;;;;;;16.67;6.32;;;;;;;11.13;100.00;102026.50;5222028;28;20029;-75
2023/02/17 09:00:48;;;;;;;14.38;6.07;;;;;;;11.21;100.00;102033.84;5204856;28;20031;-75
2023/02/17 09:03:19;;;;;;;12.05;6.05;;;;;;;11.25;100.00;102028.06;5197444;28;20084;-75
2023/02/17 09:05:53;;;;;;;12.80;5.50;;;;;;;11.34;100.00;102039.78;5216313;28;20017;-75
2023/02/17 09:08:24;;;;;;;9.00;4.93;;;;;;;11.42;100.00;102034.53;5222039;28;20033;-75
2023/02/17 09:10:54;;;;;;;10.68;5.63;;;;;;;11.49;100.00;102034.81;5222389;28;20036;-76
2023/02/17 09:13:25;;;;;;;9.85;5.85;;;;;;;11.53;100.00;102037.06;5222165;28;20020;-75
2023/02/17 09:15:57;;;;;;;8.45;5.47;;;;;;;11.62;100.00;102032.69;5222446;28;20426;-75
2023/02/17 09:18:28;;;;;;;9.07;4.45;;;;;;;11.91;100.00;102033.50;5221916;28;20029;-75
2023/02/17 09:20:59;;;;;;;7.50;4.43;;;;;;;11.98;100.00;102046.34;5222871;28;20489;-75
2023/02/17 09:23:30;;;;;;;8.65;5.05;;;;;;;12.06;100.00;102041.94;5204398;28;20024;-75
2023/02/17 09:26:04;;;;;;;7.40;4.38;;;;;;;12.11;100.00;102055.81;5222605;28;20029;-75
2023/02/17 09:28:35;;;;;;;8.65;4.40;;;;;;;12.18;100.00;102030.00;5208094;28;20021;-75
2023/02/17 09:31:08;;;;;;;7.53;3.95;;;;;;;12.30;100.00;102049.50;5222742;28;20021;-75
2023/02/17 09:33:40;;;;;;;8.93;4.53;;;;;;;12.32;100.00;102043.97;5222432;28;20021;-75
2023/02/17 09:36:13;;;;;;;8.95;4.43;;;;;;;12.59;100.00;102049.34;5222264;28;20017;-75
2023/02/17 09:38:44;;;;;;;6.55;3.63;;;;;;;12.52;100.00;102048.25;5222362;28;20490;-75
2023/02/17 09:41:19;;;;;;;7.03;4.15;;;;;;;12.45;100.00;102052.56;5222350;28;20048;-75
2023/02/17 09:43:51;;;;;;;11.40;4.95;;;;;;;12.50;100.00;102049.38;5208810;28;20024;-75
2023/02/17 09:46:40;;;;;;;12.63;4.75;;;;;;;12.57;100.00;102055.88;5221697;28;20080;-75
2023/02/17 09:49:41;;;;;;;7.13;4.18;;;;;;;12.65;100.00;102037.13;5222374;28;20481;-75
2023/02/17 09:52:15;;;;;;;12.00;4.50;;;;;;;12.59;100.00;102056.56;5211260;28;20021;-75
2023/02/17 09:55:09;;;;;;;6.32;3.30;;;;;;;12.51;100.00;102048.41;5221742;28;20025;-75
2023/02/17 09:57:50;;;;;;;6.75;3.38;;;;;;;12.53;100.00;102041.88;5221320;28;20025;-75
2023/02/17 10:00:27;;;;;;;5.22;3.38;;;;;;;12.41;100.00;102046.63;5210662;28;20029;-75
2023/02/17 10:03:14;;;;;;;9.52;4.72;;;;;;;12.45;100.00;102063.31;5221644;28;20091;-76
2023/02/17 10:05:52;;;;;;;5.97;3.83;;;;;;;12.59;100.00;102053.88;5225167;28;20392;-75
2023/02/17 10:08:30;;;;;;;7.38;4.32;;;;;;;12.66;100.00;102055.84;5207644;28;20497;-76
2023/02/17 10:11:31;;;;;;;8.15;4.57;;;;;;;12.69;100.00;102065.44;5207613;28;20028;-75
2023/02/17 10:14:08;;;;;;;6.55;4.00;;;;;;;12.74;100.00;102071.22;5225119;28;20028;-75
2023/02/17 10:16:47;;;;;;;6.90;4.05;;;;;;;12.89;100.00;102058.94;5207608;28;20024;-75
2023/02/17 10:19:40;;;;;;;5.55;3.65;;;;;;;13.25;100.00;102071.63;5207615;28;20021;-76
2023/02/17 10:22:14;;;;;;;4.93;2.50;;;;;;;13.60;100.00;102068.88;5225651;28;20102;-76
2023/02/17 10:24:45;;;;;;;5.40;2.58;;;;;;;13.72;100.00;102064.94;5225097;28;20032;-76
2023/02/17 10:27:34;;;;;;;4.45;2.45;;;;;;;13.62;100.00;102068.75;5224532;28;20020;-75
2023/02/17 10:30:30;;;;;;;3.85;2.15;;;;;;;13.82;100.00;102064.00;5225080;28;20112;-76
2023/02/17 10:33:24;;;;;;;2.30;1.90;;;;;;;13.81;100.00;102070.41;5225366;28;20025;-76
2023/02/17 10:36:20;;;;;;;3.92;1.80;;;;;;;13.96;100.00;102074.22;5213139;28;20985;-75
2023/02/17 10:38:52;;;;;;;;;;;;;;;14.00;100.00;102070.19;5225848;28;20721;-76
2023/02/17 10:41:29;;;;;;;2.80;1.58;;;;;;;13.98;100.00;102069.50;5224912;28;20007;-75
2023/02/17 10:44:01;;;;;;;5.57;2.00;;;;;;;13.93;100.00;102078.06;5224256;28;20159;-76
2023/02/17 10:46:33;;;;;;;6.18;2.55;;;;;;;13.97;100.00;102079.47;5224343;28;20070;-75
2023/02/17 10:49:04;;;;;;;5.53;1.98;;;;;;;14.04;100.00;102087.75;5225259;28;20021;-75
2023/02/17 10:51:35;;;;;;;2.63;1.77;;;;;;;14.07;100.00;102090.16;5206863;28;20086;-75
2023/02/17 10:54:18;;;;;;;2.78;2.10;;;;;;;14.04;100.00;102089.59;5224592;28;20070;-75
2023/02/17 10:56:53;;;;;;;3.38;1.92;;;;;;;13.82;100.00;102096.38;5223964;28;20029;-75
2023/02/17 10:59:30;;;;;;;3.22;1.10;;;;;;;13.70;100.00;102110.13;5224457;28;20370;-75
2023/02/17 11:02:15;;;;;;;2.25;1.50;;;;;;;13.57;100.00;102100.72;5224798;28;20059;-75
2023/02/17 11:04:49;;;;;;;2.45;0.90;;;;;;;13.51;100.00;102118.38;5210996;28;20025;-75
2023/02/17 11:07:31;;;;;;;1.67;0.60;;;;;;;13.55;100.00;102116.19;5223901;28;20021;-75
2023/02/17 11:10:19;;;;;;;3.03;0.57;;;;;;;13.75;100.00;102117.72;5224567;28;20116;-75
2023/02/17 11:12:50;;;;;;;4.70;0.80;;;;;;;13.94;100.00;102116.69;5222636;28;20385;-75
2023/02/17 11:15:28;;;;;;;1.35;0.63;;;;;;;14.08;100.00;102108.03;5223003;28;20025;-75
2023/02/17 11:18:01;;;;;;;0.60;0.60;;;;;;;14.12;100.00;102095.91;5193489;28;20032;-75
2023/02/17 11:20:34;;;;;;;1.42;0.73;;;;;;;14.22;100.00;102093.09;5224179;28;20017;-75
2023/02/17 11:23:22;;;;;;;3.05;0.90;;;;;;;14.14;100.00;102093.03;5223862;28;20393;-75
2023/02/17 11:25:59;;;;;;;1.10;0.52;;;;;;;14.26;100.00;102099.88;5223577;28;20025;-75
2023/02/17 11:28:29;;;;;;;1.55;0.60;;;;;;;14.30;100.00;102100.38;5223675;28;20086;-75
2023/02/17 11:33:46;;;;;;;2.28;0.75;;;;;;;14.29;100.00;102115.75;5223544;28;20033;-75
2023/02/17 11:36:35;;;;;;;4.30;0.70;;;;;;;14.35;100.00;102125.06;5223426;28;20020;-75
2023/02/17 11:39:20;;;;;;;4.32;1.15;;;;;;;14.38;100.00;102122.88;5211967;28;20493;-75
2023/02/17 11:41:50;;;;;;;0.57;0.43;;;;;;;14.55;100.00;102125.69;5223828;28;20363;-76
2023/02/17 11:44:23;;;;;;;3.45;0.70;;;;;;;14.32;100.00;102120.00;5222938;28;20032;-75
2023/02/17 11:47:04;;;;;;;1.30;0.73;;;;;;;14.27;100.00;102115.06;5205453;28;20500;-76
2023/02/17 11:49:49;;;;;;;3.67;0.73;;;;;;;14.22;100.00;102118.25;5223774;28;20040;-75
2023/02/17 11:52:39;;;;;;;3.42;0.85;;;;;;;14.18;100.00;102114.16;5223679;28;20477;-75